sensor_id;sensor_type;location;lat;lon;timestamp;pressure;altitude;pressure_sealevel;temperature;humidity
51067;BME280;37112;45.892;-123.962;2023-02-19T00:00:42;102188.05;;;8.68;82.70
51067;BME280;37112;45.892;-123.962;2023-02-19T00:03:18;102199.20;;;8.63;82.77
51067;BME280;37112;45.892;-123.962;2023-02-19T00:05:31;102200.66;;;8.62;83.40
51067;BME280;37112;45.892;-123.962;2023-02-19T00:07:46;102204.71;;;8.62;83.79
51067;BME280;37112;45.892;-123.962;2023-02-19T00:10:00;102200.89;;;8.60;83.45
51067;BME280;37112;45.892;-123.962;2023-02-19T00:12:13;102199.57;;;8.58;83.31
51067;BME280;37112;45.892;-123.962;2023-02-19T00:14:25;102201.17;;;8.58;83.66
51067;BME280;37112;45.892;-123.962;2023-02-19T00:16:39;102208.32;;;8.56;83.07
51067;BME280;37112;45.892;-123.962;2023-02-19T00:18:54;102212.41;;;8.55;83.37
51067;BME280;37112;45.892;-123.962;2023-02-19T00:21:08;102212.02;;;8.56;83.51
51067;BME280;37112;45.892;-123.962;2023-02-19T00:23:21;102213.27;;;8.56;83.40
51067;BME280;37112;45.892;-123.962;2023-02-19T00:25:37;102215.55;;;8.57;83.69
51067;BME280;37112;45.892;-123.962;2023-02-19T00:27:50;102216.61;;;8.57;83.58
51067;BME280;37112;45.892;-123.962;2023-02-19T00:30:05;102225.12;;;8.57;83.40
51067;BME280;37112;45.892;-123.962;2023-02-19T00:32:18;102226.02;;;8.56;83.52
51067;BME280;37112;45.892;-123.962;2023-02-19T00:34:32;102224.37;;;8.58;83.80
51067;BME280;37112;45.892;-123.962;2023-02-19T00:36:46;102218.02;;;8.57;83.71
51067;BME280;37112;45.892;-123.962;2023-02-19T00:39:00;102210.95;;;8.57;83.78
51067;BME280;37112;45.892;-123.962;2023-02-19T00:41:14;102210.52;;;8.59;83.99
51067;BME280;37112;45.892;-123.962;2023-02-19T00:43:31;102218.05;;;8.61;83.87
51067;BME280;37112;45.892;-123.962;2023-02-19T00:45:45;102216.73;;;8.63;83.76
51067;BME280;37112;45.892;-123.962;2023-02-19T00:47:59;102222.39;;;8.63;83.65
51067;BME280;37112;45.892;-123.962;2023-02-19T00:50:13;102223.79;;;8.64;83.79
51067;BME280;37112;45.892;-123.962;2023-02-19T00:52:27;102219.36;;;8.64;83.57
51067;BME280;37112;45.892;-123.962;2023-02-19T00:54:41;102218.13;;;8.64;83.72
51067;BME280;37112;45.892;-123.962;2023-02-19T00:56:54;102213.48;;;8.65;83.63
51067;BME280;37112;45.892;-123.962;2023-02-19T00:59:08;102208.33;;;8.66;83.80
51067;BME280;37112;45.892;-123.962;2023-02-19T01:01:21;102210.55;;;8.68;83.98
51067;BME280;37112;45.892;-123.962;2023-02-19T01:03:35;102217.76;;;8.70;83.94
51067;BME280;37112;45.892;-123.962;2023-02-19T01:05:48;102215.37;;;8.72;84.09
51067;BME280;37112;45.892;-123.962;2023-02-19T01:08:02;102220.46;;;8.73;83.90
51067;BME280;37112;45.892;-123.962;2023-02-19T01:10:17;102220.65;;;8.73;83.95
51067;BME280;37112;45.892;-123.962;2023-02-19T01:12:30;102226.48;;;8.73;84.01
51067;BME280;37112;45.892;-123.962;2023-02-19T01:14:43;102227.91;;;8.73;84.02
51067;BME280;37112;45.892;-123.962;2023-02-19T01:16:56;102221.54;;;8.73;84.00
51067;BME280;37112;45.892;-123.962;2023-02-19T01:19:10;102219.79;;;8.73;84.16
51067;BME280;37112;45.892;-123.962;2023-02-19T01:21:27;102217.84;;;8.73;84.29
51067;BME280;37112;45.892;-123.962;2023-02-19T01:23:40;102217.64;;;8.73;84.35
51067;BME280;37112;45.892;-123.962;2023-02-19T01:25:53;102217.70;;;8.71;84.12
51067;BME280;37112;45.892;-123.962;2023-02-19T01:28:07;102212.13;;;8.69;84.13
51067;BME280;37112;45.892;-123.962;2023-02-19T01:30:21;102209.66;;;8.68;84.27
51067;BME280;37112;45.892;-123.962;2023-02-19T01:32:34;102204.21;;;8.67;84.23
51067;BME280;37112;45.892;-123.962;2023-02-19T01:34:47;102203.04;;;8.65;84.33
51067;BME280;37112;45.892;-123.962;2023-02-19T01:37:01;102205.19;;;8.64;84.51
51067;BME280;37112;45.892;-123.962;2023-02-19T01:39:15;102217.77;;;8.64;84.58
51067;BME280;37112;45.892;-123.962;2023-02-19T01:41:29;102229.27;;;8.64;84.53
51067;BME280;37112;45.892;-123.962;2023-02-19T01:46:29;102248.33;;;8.56;84.16
51067;BME280;37112;45.892;-123.962;2023-02-19T01:48:43;102248.23;;;8.44;83.63
51067;BME280;37112;45.892;-123.962;2023-02-19T01:50:59;102244.36;;;8.37;84.01
51067;BME280;37112;45.892;-123.962;2023-02-19T01:53:17;102239.00;;;8.33;83.85
51067;BME280;37112;45.892;-123.962;2023-02-19T01:55:34;102244.73;;;8.31;84.28
51067;BME280;37112;45.892;-123.962;2023-02-19T01:57:51;102248.10;;;8.31;84.52
51067;BME280;37112;45.892;-123.962;2023-02-19T02:00:11;102260.38;;;8.29;83.87
51067;BME280;37112;45.892;-123.962;2023-02-19T02:02:28;102251.84;;;8.25;84.06
51067;BME280;37112;45.892;-123.962;2023-02-19T02:04:44;102245.50;;;8.24;84.05
51067;BME280;37112;45.892;-123.962;2023-02-19T02:06:57;102254.73;;;8.23;84.14
51067;BME280;37112;45.892;-123.962;2023-02-19T02:09:13;102260.42;;;8.22;84.12
51067;BME280;37112;45.892;-123.962;2023-02-19T02:11:49;102257.32;;;8.20;83.54
51067;BME280;37112;45.892;-123.962;2023-02-19T02:14:04;102252.05;;;8.19;83.95
51067;BME280;37112;45.892;-123.962;2023-02-19T02:16:24;102254.31;;;8.20;84.02
51067;BME280;37112;45.892;-123.962;2023-02-19T02:18:51;102261.64;;;8.23;84.22
51067;BME280;37112;45.892;-123.962;2023-02-19T02:23:59;102250.52;;;8.27;84.24
51067;BME280;37112;45.892;-123.962;2023-02-19T02:26:37;102251.73;;;8.28;84.28
51067;BME280;37112;45.892;-123.962;2023-02-19T02:31:52;102251.60;;;8.27;84.04
51067;BME280;37112;45.892;-123.962;2023-02-19T02:34:14;102262.94;;;8.27;84.23
51067;BME280;37112;45.892;-123.962;2023-02-19T02:36:30;102279.41;;;8.26;84.10
51067;BME280;37112;45.892;-123.962;2023-02-19T02:38:49;102283.83;;;8.26;84.17
51067;BME280;37112;45.892;-123.962;2023-02-19T02:41:04;102282.09;;;8.26;84.40
51067;BME280;37112;45.892;-123.962;2023-02-19T02:43:20;102288.27;;;8.26;84.42
51067;BME280;37112;45.892;-123.962;2023-02-19T02:45:35;102288.29;;;8.25;84.44
51067;BME280;37112;45.892;-123.962;2023-02-19T02:48:30;102282.46;;;8.24;84.42
51067;BME280;37112;45.892;-123.962;2023-02-19T02:50:49;102287.13;;;8.23;84.64
51067;BME280;37112;45.892;-123.962;2023-02-19T02:53:04;102295.48;;;8.21;84.59
51067;BME280;37112;45.892;-123.962;2023-02-19T02:55:39;102291.32;;;8.19;84.49
51067;BME280;37112;45.892;-123.962;2023-02-19T02:57:55;102295.83;;;8.16;84.48
51067;BME280;37112;45.892;-123.962;2023-02-19T03:02:30;102294.45;;;8.10;85.18
51067;BME280;37112;45.892;-123.962;2023-02-19T03:04:49;102290.23;;;8.09;85.29
51067;BME280;37112;45.892;-123.962;2023-02-19T03:07:23;102284.03;;;8.08;85.47
51067;BME280;37112;45.892;-123.962;2023-02-19T03:09:42;102290.39;;;8.08;85.54
51067;BME280;37112;45.892;-123.962;2023-02-19T03:11:59;102294.66;;;8.08;85.58
51067;BME280;37112;45.892;-123.962;2023-02-19T03:14:36;102293.92;;;8.09;85.64
51067;BME280;37112;45.892;-123.962;2023-02-19T03:17:11;102295.78;;;8.13;85.65
51067;BME280;37112;45.892;-123.962;2023-02-19T03:20:06;102300.00;;;8.13;85.66
51067;BME280;37112;45.892;-123.962;2023-02-19T03:22:27;102303.77;;;8.12;85.61
51067;BME280;37112;45.892;-123.962;2023-02-19T03:24:48;102307.52;;;8.11;85.61
51067;BME280;37112;45.892;-123.962;2023-02-19T03:27:21;102315.25;;;8.12;85.65
51067;BME280;37112;45.892;-123.962;2023-02-19T03:29:40;102319.42;;;8.14;85.77
51067;BME280;37112;45.892;-123.962;2023-02-19T03:31:59;102322.40;;;8.15;85.65
51067;BME280;37112;45.892;-123.962;2023-02-19T03:34:17;102322.74;;;8.16;85.76
51067;BME280;37112;45.892;-123.962;2023-02-19T03:36:45;102325.39;;;8.16;85.74
51067;BME280;37112;45.892;-123.962;2023-02-19T03:39:06;102332.36;;;8.14;85.67
51067;BME280;37112;45.892;-123.962;2023-02-19T03:41:29;102331.89;;;8.12;85.67
51067;BME280;37112;45.892;-123.962;2023-02-19T03:43:51;102337.73;;;8.12;85.73
51067;BME280;37112;45.892;-123.962;2023-02-19T03:46:12;102336.53;;;8.11;85.68
51067;BME280;37112;45.892;-123.962;2023-02-19T03:48:32;102331.97;;;8.09;85.73
51067;BME280;37112;45.892;-123.962;2023-02-19T03:50:53;102333.61;;;8.07;85.71
51067;BME280;37112;45.892;-123.962;2023-02-19T03:53:14;102332.73;;;8.07;85.81
51067;BME280;37112;45.892;-123.962;2023-02-19T03:55:38;102334.06;;;8.04;85.54
51067;BME280;37112;45.892;-123.962;2023-02-19T03:58:01;102334.05;;;7.99;85.48
51067;BME280;37112;45.892;-123.962;2023-02-19T04:00:24;102337.44;;;7.98;85.64
51067;BME280;37112;45.892;-123.962;2023-02-19T04:02:41;102337.48;;;7.97;85.61
51067;BME280;37112;45.892;-123.962;2023-02-19T04:05:01;102335.54;;;7.97;85.68
51067;BME280;37112;45.892;-123.962;2023-02-19T04:07:22;102335.55;;;7.96;85.77
51067;BME280;37112;45.892;-123.962;2023-02-19T04:09:38;102340.33;;;7.97;85.88
51067;BME280;37112;45.892;-123.962;2023-02-19T04:11:57;102348.98;;;7.97;85.83
51067;BME280;37112;45.892;-123.962;2023-02-19T04:14:16;102357.48;;;7.97;86.04
51067;BME280;37112;45.892;-123.962;2023-02-19T04:16:33;102361.20;;;7.96;85.85
51067;BME280;37112;45.892;-123.962;2023-02-19T04:18:51;102362.99;;;7.96;85.94
51067;BME280;37112;45.892;-123.962;2023-02-19T04:21:07;102368.88;;;7.94;85.91
51067;BME280;37112;45.892;-123.962;2023-02-19T04:23:23;102366.63;;;7.92;85.87
51067;BME280;37112;45.892;-123.962;2023-02-19T04:25:40;102367.13;;;7.88;85.87
51067;BME280;37112;45.892;-123.962;2023-02-19T04:27:55;102371.63;;;7.85;85.78
51067;BME280;37112;45.892;-123.962;2023-02-19T04:30:11;102379.88;;;7.81;85.71
51067;BME280;37112;45.892;-123.962;2023-02-19T04:32:26;102387.53;;;7.80;85.85
51067;BME280;37112;45.892;-123.962;2023-02-19T04:34:40;102392.73;;;7.76;85.85
51067;BME280;37112;45.892;-123.962;2023-02-19T04:36:54;102401.86;;;7.73;85.79
51067;BME280;37112;45.892;-123.962;2023-02-19T04:39:11;102408.27;;;7.72;85.88
51067;BME280;37112;45.892;-123.962;2023-02-19T04:41:29;102408.64;;;7.70;85.90
51067;BME280;37112;45.892;-123.962;2023-02-19T04:43:44;102406.19;;;7.69;86.01
51067;BME280;37112;45.892;-123.962;2023-02-19T04:46:07;102408.50;;;7.69;86.07
51067;BME280;37112;45.892;-123.962;2023-02-19T04:48:27;102408.83;;;7.70;86.14
51067;BME280;37112;45.892;-123.962;2023-02-19T04:50:44;102412.15;;;7.72;86.17
51067;BME280;37112;45.892;-123.962;2023-02-19T04:52:59;102416.40;;;7.72;86.17
51067;BME280;37112;45.892;-123.962;2023-02-19T04:55:12;102413.57;;;7.72;86.23
51067;BME280;37112;45.892;-123.962;2023-02-19T04:57:26;102421.48;;;7.73;86.09
51067;BME280;37112;45.892;-123.962;2023-02-19T04:59:40;102431.23;;;7.72;85.95
51067;BME280;37112;45.892;-123.962;2023-02-19T05:01:55;102438.16;;;7.72;85.85
51067;BME280;37112;45.892;-123.962;2023-02-19T05:04:10;102433.19;;;7.72;86.11
51067;BME280;37112;45.892;-123.962;2023-02-19T05:06:24;102434.33;;;7.75;86.31
51067;BME280;37112;45.892;-123.962;2023-02-19T05:08:39;102433.07;;;7.76;86.22
51067;BME280;37112;45.892;-123.962;2023-02-19T05:10:55;102433.77;;;7.76;85.99
51067;BME280;37112;45.892;-123.962;2023-02-19T05:13:09;102437.27;;;7.77;86.09
51067;BME280;37112;45.892;-123.962;2023-02-19T05:15:28;102443.50;;;7.76;85.90
51067;BME280;37112;45.892;-123.962;2023-02-19T05:17:45;102448.27;;;7.76;86.04
51067;BME280;37112;45.892;-123.962;2023-02-19T05:19:59;102453.73;;;7.77;86.14
51067;BME280;37112;45.892;-123.962;2023-02-19T05:22:18;102457.77;;;7.77;86.10
51067;BME280;37112;45.892;-123.962;2023-02-19T05:24:33;102456.54;;;7.77;86.15
51067;BME280;37112;45.892;-123.962;2023-02-19T05:26:47;102452.35;;;7.76;86.11
51067;BME280;37112;45.892;-123.962;2023-02-19T05:29:02;102449.56;;;7.74;85.99
51067;BME280;37112;45.892;-123.962;2023-02-19T05:31:17;102452.83;;;7.72;85.97
51067;BME280;37112;45.892;-123.962;2023-02-19T05:33:34;102451.99;;;7.70;85.80
51067;BME280;37112;45.892;-123.962;2023-02-19T05:35:49;102451.89;;;7.67;85.81
51067;BME280;37112;45.892;-123.962;2023-02-19T05:38:06;102456.09;;;7.68;86.05
51067;BME280;37112;45.892;-123.962;2023-02-19T05:40:22;102459.16;;;7.67;85.80
51067;BME280;37112;45.892;-123.962;2023-02-19T05:42:38;102456.60;;;7.63;85.89
51067;BME280;37112;45.892;-123.962;2023-02-19T05:44:52;102454.88;;;7.61;85.86
51067;BME280;37112;45.892;-123.962;2023-02-19T05:47:05;102453.20;;;7.58;85.79
51067;BME280;37112;45.892;-123.962;2023-02-19T05:49:19;102454.69;;;7.56;85.78
51067;BME280;37112;45.892;-123.962;2023-02-19T05:51:34;102454.63;;;7.51;85.81
51067;BME280;37112;45.892;-123.962;2023-02-19T05:53:49;102457.90;;;7.48;85.76
51067;BME280;37112;45.892;-123.962;2023-02-19T05:56:02;102460.45;;;7.44;85.84
51067;BME280;37112;45.892;-123.962;2023-02-19T05:58:18;102461.81;;;7.40;85.76
51067;BME280;37112;45.892;-123.962;2023-02-19T06:00:31;102462.59;;;7.37;85.94
51067;BME280;37112;45.892;-123.962;2023-02-19T06:02:45;102464.24;;;7.35;85.93
51067;BME280;37112;45.892;-123.962;2023-02-19T06:04:59;102466.42;;;7.33;86.05
51067;BME280;37112;45.892;-123.962;2023-02-19T06:07:12;102465.94;;;7.32;85.99
51067;BME280;37112;45.892;-123.962;2023-02-19T06:09:25;102464.19;;;7.30;86.15
51067;BME280;37112;45.892;-123.962;2023-02-19T06:11:39;102463.90;;;7.28;86.33
51067;BME280;37112;45.892;-123.962;2023-02-19T06:13:54;102461.16;;;7.25;86.41
51067;BME280;37112;45.892;-123.962;2023-02-19T06:16:09;102459.77;;;7.23;86.52
51067;BME280;37112;45.892;-123.962;2023-02-19T06:18:23;102456.65;;;7.21;86.65
51067;BME280;37112;45.892;-123.962;2023-02-19T06:20:36;102461.46;;;7.19;86.67
51067;BME280;37112;45.892;-123.962;2023-02-19T06:22:51;102464.30;;;7.19;86.82
51067;BME280;37112;45.892;-123.962;2023-02-19T06:25:06;102467.53;;;7.18;86.76
51067;BME280;37112;45.892;-123.962;2023-02-19T06:27:25;102470.38;;;7.16;86.83
51067;BME280;37112;45.892;-123.962;2023-02-19T06:29:38;102474.98;;;7.15;86.90
51067;BME280;37112;45.892;-123.962;2023-02-19T06:31:52;102474.98;;;7.15;87.02
51067;BME280;37112;45.892;-123.962;2023-02-19T06:34:07;102470.80;;;7.14;86.94
51067;BME280;37112;45.892;-123.962;2023-02-19T06:36:23;102470.13;;;7.12;87.03
51067;BME280;37112;45.892;-123.962;2023-02-19T06:38:36;102471.23;;;7.11;87.05
51067;BME280;37112;45.892;-123.962;2023-02-19T06:40:51;102484.86;;;7.10;86.81
51067;BME280;37112;45.892;-123.962;2023-02-19T06:43:05;102484.23;;;7.06;86.90
51067;BME280;37112;45.892;-123.962;2023-02-19T06:45:19;102480.95;;;7.03;86.89
51067;BME280;37112;45.892;-123.962;2023-02-19T06:47:34;102478.90;;;7.02;86.97
51067;BME280;37112;45.892;-123.962;2023-02-19T06:49:48;102476.98;;;6.99;86.90
51067;BME280;37112;45.892;-123.962;2023-02-19T06:52:02;102479.29;;;6.98;87.16
51067;BME280;37112;45.892;-123.962;2023-02-19T06:54:16;102475.42;;;6.98;87.27
51067;BME280;37112;45.892;-123.962;2023-02-19T06:56:32;102469.98;;;6.96;87.30
51067;BME280;37112;45.892;-123.962;2023-02-19T06:58:45;102469.37;;;6.93;87.17
51067;BME280;37112;45.892;-123.962;2023-02-19T07:00:59;102469.41;;;6.91;87.13
51067;BME280;37112;45.892;-123.962;2023-02-19T07:03:13;102466.34;;;6.88;87.11
51067;BME280;37112;45.892;-123.962;2023-02-19T07:05:26;102462.15;;;6.85;87.19
51067;BME280;37112;45.892;-123.962;2023-02-19T07:07:39;102460.80;;;6.83;87.18
51067;BME280;37112;45.892;-123.962;2023-02-19T07:09:52;102460.73;;;6.78;87.05
51067;BME280;37112;45.892;-123.962;2023-02-19T07:12:07;102452.17;;;6.74;87.11
51067;BME280;37112;45.892;-123.962;2023-02-19T07:14:21;102458.42;;;6.71;86.99
51067;BME280;37112;45.892;-123.962;2023-02-19T07:16:34;102463.63;;;6.67;86.90
51067;BME280;37112;45.892;-123.962;2023-02-19T07:18:49;102458.41;;;6.64;87.05
51067;BME280;37112;45.892;-123.962;2023-02-19T07:21:06;102467.64;;;6.62;87.12
51067;BME280;37112;45.892;-123.962;2023-02-19T07:23:20;102462.75;;;6.59;87.21
51067;BME280;37112;45.892;-123.962;2023-02-19T07:25:33;102462.27;;;6.58;87.26
51067;BME280;37112;45.892;-123.962;2023-02-19T07:27:47;102466.77;;;6.55;86.92
51067;BME280;37112;45.892;-123.962;2023-02-19T07:30:00;102469.64;;;6.51;87.03
51067;BME280;37112;45.892;-123.962;2023-02-19T07:32:16;102468.27;;;6.50;87.26
51067;BME280;37112;45.892;-123.962;2023-02-19T07:34:31;102464.80;;;6.48;87.29
51067;BME280;37112;45.892;-123.962;2023-02-19T07:36:45;102467.86;;;6.44;86.95
51067;BME280;37112;45.892;-123.962;2023-02-19T07:39:00;102479.61;;;6.40;87.12
51067;BME280;37112;45.892;-123.962;2023-02-19T07:41:13;102469.41;;;6.38;87.30
51067;BME280;37112;45.892;-123.962;2023-02-19T07:43:33;102467.12;;;6.37;87.43
51067;BME280;37112;45.892;-123.962;2023-02-19T07:45:47;102472.99;;;6.36;87.45
51067;BME280;37112;45.892;-123.962;2023-02-19T07:48:01;102477.63;;;6.34;87.48
51067;BME280;37112;45.892;-123.962;2023-02-19T07:52:27;102484.34;;;6.33;87.70
51067;BME280;37112;45.892;-123.962;2023-02-19T07:54:41;102481.00;;;6.33;87.76
51067;BME280;37112;45.892;-123.962;2023-02-19T07:56:54;102480.14;;;6.32;87.85
51067;BME280;37112;45.892;-123.962;2023-02-19T07:59:07;102483.71;;;6.31;87.87
51067;BME280;37112;45.892;-123.962;2023-02-19T08:01:22;102488.46;;;6.31;87.95
51067;BME280;37112;45.892;-123.962;2023-02-19T08:03:59;102489.00;;;6.30;88.02
51067;BME280;37112;45.892;-123.962;2023-02-19T08:06:13;102482.48;;;6.30;88.20
51067;BME280;37112;45.892;-123.962;2023-02-19T08:08:27;102482.81;;;6.31;88.42
51067;BME280;37112;45.892;-123.962;2023-02-19T08:10:41;102494.08;;;6.32;88.53
51067;BME280;37112;45.892;-123.962;2023-02-19T08:13:13;102501.11;;;6.33;88.57
51067;BME280;37112;45.892;-123.962;2023-02-19T08:15:36;102512.04;;;6.33;88.59
51067;BME280;37112;45.892;-123.962;2023-02-19T08:17:49;102511.52;;;6.33;88.57
51067;BME280;37112;45.892;-123.962;2023-02-19T08:20:03;102515.02;;;6.34;88.74
51067;BME280;37112;45.892;-123.962;2023-02-19T08:22:17;102512.55;;;6.34;88.72
51067;BME280;37112;45.892;-123.962;2023-02-19T08:24:31;102520.30;;;6.34;88.79
51067;BME280;37112;45.892;-123.962;2023-02-19T08:26:44;102520.11;;;6.35;88.90
51067;BME280;37112;45.892;-123.962;2023-02-19T08:28:57;102517.25;;;6.36;88.99
51067;BME280;37112;45.892;-123.962;2023-02-19T08:31:12;102519.88;;;6.37;89.04
51067;BME280;37112;45.892;-123.962;2023-02-19T08:33:25;102519.70;;;6.38;88.95
51067;BME280;37112;45.892;-123.962;2023-02-19T08:35:39;102521.84;;;6.36;88.85
51067;BME280;37112;45.892;-123.962;2023-02-19T08:37:56;102523.25;;;6.36;88.93
51067;BME280;37112;45.892;-123.962;2023-02-19T08:40:11;102531.41;;;6.35;88.89
51067;BME280;37112;45.892;-123.962;2023-02-19T08:42:25;102529.46;;;6.35;89.02
51067;BME280;37112;45.892;-123.962;2023-02-19T08:44:40;102530.00;;;6.35;89.24
51067;BME280;37112;45.892;-123.962;2023-02-19T08:46:53;102529.13;;;6.34;89.08
51067;BME280;37112;45.892;-123.962;2023-02-19T08:49:06;102524.37;;;6.34;89.21
51067;BME280;37112;45.892;-123.962;2023-02-19T08:51:20;102530.91;;;6.34;89.18
51067;BME280;37112;45.892;-123.962;2023-02-19T08:53:34;102535.49;;;6.34;89.18
51067;BME280;37112;45.892;-123.962;2023-02-19T08:55:47;102529.33;;;6.33;89.41
51067;BME280;37112;45.892;-123.962;2023-02-19T08:58:01;102538.83;;;6.35;89.67
51067;BME280;37112;45.892;-123.962;2023-02-19T09:00:15;102532.61;;;6.36;89.57
51067;BME280;37112;45.892;-123.962;2023-02-19T09:02:28;102527.48;;;6.36;89.68
51067;BME280;37112;45.892;-123.962;2023-02-19T09:04:42;102526.08;;;6.36;89.61
51067;BME280;37112;45.892;-123.962;2023-02-19T09:06:57;102530.14;;;6.36;89.68
51067;BME280;37112;45.892;-123.962;2023-02-19T09:09:10;102532.61;;;6.36;89.97
51067;BME280;37112;45.892;-123.962;2023-02-19T09:11:23;102533.11;;;6.37;89.87
51067;BME280;37112;45.892;-123.962;2023-02-19T09:13:38;102530.10;;;6.38;90.04
51067;BME280;37112;45.892;-123.962;2023-02-19T09:15:51;102527.42;;;6.40;90.15
51067;BME280;37112;45.892;-123.962;2023-02-19T09:18:04;102527.20;;;6.42;90.21
51067;BME280;37112;45.892;-123.962;2023-02-19T09:20:17;102522.27;;;6.42;90.21
51067;BME280;37112;45.892;-123.962;2023-02-19T09:22:30;102516.95;;;6.42;90.17
51067;BME280;37112;45.892;-123.962;2023-02-19T09:24:44;102521.17;;;6.43;90.36
51067;BME280;37112;45.892;-123.962;2023-02-19T09:26:58;102525.06;;;6.42;90.14
51067;BME280;37112;45.892;-123.962;2023-02-19T09:29:11;102525.55;;;6.45;90.44
51067;BME280;37112;45.892;-123.962;2023-02-19T09:31:24;102525.17;;;6.47;90.23
51067;BME280;37112;45.892;-123.962;2023-02-19T09:33:38;102522.70;;;6.47;90.36
51067;BME280;37112;45.892;-123.962;2023-02-19T09:35:54;102524.13;;;6.46;90.27
51067;BME280;37112;45.892;-123.962;2023-02-19T09:38:10;102530.83;;;6.46;90.20
51067;BME280;37112;45.892;-123.962;2023-02-19T09:40:23;102537.89;;;6.45;90.06
51067;BME280;37112;45.892;-123.962;2023-02-19T09:42:36;102550.05;;;6.46;90.21
51067;BME280;37112;45.892;-123.962;2023-02-19T09:44:54;102558.89;;;6.45;90.25
51067;BME280;37112;45.892;-123.962;2023-02-19T09:47:12;102566.83;;;6.46;90.21
51067;BME280;37112;45.892;-123.962;2023-02-19T09:49:30;102568.06;;;6.46;90.31
51067;BME280;37112;45.892;-123.962;2023-02-19T09:51:45;102570.00;;;6.47;90.42
51067;BME280;37112;45.892;-123.962;2023-02-19T09:53:59;102565.20;;;6.48;90.50
51067;BME280;37112;45.892;-123.962;2023-02-19T09:56:14;102557.96;;;6.48;90.67
51067;BME280;37112;45.892;-123.962;2023-02-19T09:58:33;102554.80;;;6.48;90.70
51067;BME280;37112;45.892;-123.962;2023-02-19T10:00:49;102557.23;;;6.49;90.93
51067;BME280;37112;45.892;-123.962;2023-02-19T10:03:05;102557.23;;;6.49;90.86
51067;BME280;37112;45.892;-123.962;2023-02-19T10:05:23;102561.98;;;6.50;91.01
51067;BME280;37112;45.892;-123.962;2023-02-19T10:07:40;102560.20;;;6.51;91.08
51067;BME280;37112;45.892;-123.962;2023-02-19T10:09:58;102560.14;;;6.53;90.96
51067;BME280;37112;45.892;-123.962;2023-02-19T10:12:17;102559.42;;;6.53;90.91
51067;BME280;37112;45.892;-123.962;2023-02-19T10:14:36;102569.49;;;6.53;90.76
51067;BME280;37112;45.892;-123.962;2023-02-19T10:16:52;102582.02;;;6.54;91.01
51067;BME280;37112;45.892;-123.962;2023-02-19T10:19:05;102579.52;;;6.55;91.21
51067;BME280;37112;45.892;-123.962;2023-02-19T10:21:22;102576.65;;;6.57;91.28
51067;BME280;37112;45.892;-123.962;2023-02-19T10:23:36;102573.10;;;6.58;91.42
51067;BME280;37112;45.892;-123.962;2023-02-19T10:25:54;102569.58;;;6.58;91.11
51067;BME280;37112;45.892;-123.962;2023-02-19T10:28:10;102568.73;;;6.57;91.04
51067;BME280;37112;45.892;-123.962;2023-02-19T10:30:30;102577.92;;;6.56;90.90
51067;BME280;37112;45.892;-123.962;2023-02-19T10:33:00;102577.94;;;6.55;90.86
51067;BME280;37112;45.892;-123.962;2023-02-19T10:35:16;102577.23;;;6.55;91.07
51067;BME280;37112;45.892;-123.962;2023-02-19T10:37:29;102580.19;;;6.56;91.33
51067;BME280;37112;45.892;-123.962;2023-02-19T10:39:44;102585.09;;;6.58;91.54
51067;BME280;37112;45.892;-123.962;2023-02-19T10:41:59;102594.77;;;6.60;91.52
51067;BME280;37112;45.892;-123.962;2023-02-19T10:44:17;102594.70;;;6.63;91.97
51067;BME280;37112;45.892;-123.962;2023-02-19T10:46:32;102586.70;;;6.66;92.07
51067;BME280;37112;45.892;-123.962;2023-02-19T10:48:51;102585.83;;;6.66;91.88
51067;BME280;37112;45.892;-123.962;2023-02-19T10:51:08;102576.52;;;6.63;91.81
51067;BME280;37112;45.892;-123.962;2023-02-19T10:53:34;102572.95;;;6.64;91.96
51067;BME280;37112;45.892;-123.962;2023-02-19T10:55:47;102570.83;;;6.65;91.93
51067;BME280;37112;45.892;-123.962;2023-02-19T10:58:21;102576.29;;;6.65;91.88
51067;BME280;37112;45.892;-123.962;2023-02-19T11:00:37;102570.67;;;6.64;91.52
51067;BME280;37112;45.892;-123.962;2023-02-19T11:02:50;102569.64;;;6.63;91.51
51067;BME280;37112;45.892;-123.962;2023-02-19T11:05:25;102579.88;;;6.63;91.63
51067;BME280;37112;45.892;-123.962;2023-02-19T11:07:41;102577.05;;;6.63;91.50
51067;BME280;37112;45.892;-123.962;2023-02-19T11:09:56;102585.02;;;6.62;91.39
51067;BME280;37112;45.892;-123.962;2023-02-19T11:12:10;102581.66;;;6.62;91.39
51067;BME280;37112;45.892;-123.962;2023-02-19T11:14:25;102574.46;;;6.60;91.29
51067;BME280;37112;45.892;-123.962;2023-02-19T11:16:44;102575.03;;;6.59;91.35
51067;BME280;37112;45.892;-123.962;2023-02-19T11:18:59;102578.43;;;6.57;91.30
51067;BME280;37112;45.892;-123.962;2023-02-19T11:21:27;102574.40;;;6.55;91.32
51067;BME280;37112;45.892;-123.962;2023-02-19T11:23:47;102581.86;;;6.53;91.25
51067;BME280;37112;45.892;-123.962;2023-02-19T11:26:03;102578.04;;;6.50;91.06
51067;BME280;37112;45.892;-123.962;2023-02-19T11:28:27;102582.65;;;6.49;91.34
51067;BME280;37112;45.892;-123.962;2023-02-19T11:30:43;102584.91;;;6.50;91.70
51067;BME280;37112;45.892;-123.962;2023-02-19T11:32:56;102585.21;;;6.52;91.83
51067;BME280;37112;45.892;-123.962;2023-02-19T11:35:28;102588.03;;;6.52;91.76
51067;BME280;37112;45.892;-123.962;2023-02-19T11:37:55;102592.98;;;6.53;91.94
51067;BME280;37112;45.892;-123.962;2023-02-19T11:40:14;102579.04;;;6.52;91.84
51067;BME280;37112;45.892;-123.962;2023-02-19T11:42:35;102573.41;;;6.51;92.07
51067;BME280;37112;45.892;-123.962;2023-02-19T11:45:08;102575.36;;;6.51;91.92
51067;BME280;37112;45.892;-123.962;2023-02-19T11:47:31;102568.16;;;6.50;91.87
51067;BME280;37112;45.892;-123.962;2023-02-19T11:49:52;102567.83;;;6.49;92.02